KMRN

Foothills Regional Airport

Morganton, North Carolina, USA
METAR KMRN 220955Z AUTO 00000KT 1/4SM FG OVC001 15/15 A3018 RMK AO2 T01540154
Observed Flight Rules
May-22 @ 09:55 UTC (20 minutes ago) Instrument Flight Rules
Visibility Clouds Conditions
1/4 miles
  • Overcast at 100' AGL
  • Fog
Temperatures Readings
Current 15°C / 59°F
Dewpoint 15°C / 59°F
Humidity 100%
Altimeter 30.18" Hg
Pressure 1022 hPa
Elevation 387
METAR KMRN 220955Z AUTO 00000KT 1/4SM FG OVC001 15/15 A3018 RMK AO2 T01540154
Observed Flight Rules
May-22 @ 09:55 UTC
(20 minutes ago)
LIFR
Clouds
  • Overcast at 100' AGL
Conditions
  • Fog
Temperature Dewpoint
15°C / 59°F 15°C / 59°F
Humidity Altimeter Pressure
100% 30.18" Hg 1022 hPa